Time;durP1;ratioP1;P1;durP2;ratioP2;P2;SDS_P1;SDS_P2;PMS_P1;PMS_P2;Temp;Humidity;BMP_temperature;BMP_pressure;BME280_temperature;BME280_humidity;BME280_pressure;Samples;Min_cycle;Max_cycle;Signal;HPM_P1;HPM_P2
2022/08/25 00:00:59;;;;;;;8.32;3.78;;;20.70;86.00;;;;;;5052766;28;20028;-66
2022/08/25 00:03:25;;;;;;;6.00;3.85;;;20.70;85.90;;;;;;5034881;28;20374;-66
2022/08/25 00:05:50;;;;;;;9.48;4.05;;;20.70;86.00;;;;;;5051295;28;20025;-67
2022/08/25 00:08:16;;;;;;;4.90;3.25;;;20.70;86.10;;;;;;5052873;28;20104;-66
2022/08/25 00:10:41;;;;;;;4.00;3.20;;;20.70;86.10;;;;;;5051814;28;20033;-66
2022/08/25 00:13:08;;;;;;;5.43;3.38;;;20.70;86.10;;;;;;5051904;28;20036;-66
2022/08/25 00:15:33;;;;;;;7.30;3.47;;;20.60;86.10;;;;;;5050550;28;20024;-66
2022/08/25 00:18:00;;;;;;;4.65;3.47;;;20.70;86.20;;;;;;5034205;28;20033;-66
2022/08/25 00:20:27;;;;;;;8.90;3.83;;;20.70;86.30;;;;;;5050921;28;20129;-66
2022/08/25 00:22:54;;;;;;;4.55;3.08;;;20.70;86.30;;;;;;5053973;28;20032;-67
2022/08/25 00:25:22;;;;;;;4.47;2.60;;;20.60;86.30;;;;;;5050363;28;20108;-66
2022/08/25 00:27:49;;;;;;;4.22;3.25;;;20.60;86.40;;;;;;5052164;28;20462;-66
2022/08/25 00:30:16;;;;;;;4.13;3.30;;;20.60;86.40;;;;;;5051776;28;20029;-66
2022/08/25 00:32:43;;;;;;;5.85;3.15;;;20.60;86.50;;;;;;5052227;28;20025;-66
2022/08/25 00:35:08;;;;;;;6.38;3.30;;;20.60;86.60;;;;;;5050123;28;20029;-66
2022/08/25 00:37:36;;;;;;;5.10;3.38;;;20.60;86.60;;;;;;5051826;28;20037;-66
2022/08/25 00:40:02;;;;;;;7.35;3.83;;;20.60;86.60;;;;;;5033096;28;20037;-66
2022/08/25 00:42:28;;;;;;;4.72;3.47;;;20.60;86.70;;;;;;5052041;28;20040;-66
2022/08/25 00:44:54;;;;;;;6.40;4.10;;;20.60;86.70;;;;;;5051352;28;20024;-66
2022/08/25 00:47:19;;;;;;;10.88;3.97;;;20.60;86.80;;;;;;5032960;28;20500;-67
2022/08/25 00:49:50;;;;;;;6.00;4.15;;;20.60;86.80;;;;;;5033459;28;20024;-66
2022/08/25 00:52:20;;;;;;;5.10;3.55;;;20.60;86.90;;;;;;5051385;28;20037;-66
2022/08/25 00:55:00;;;;;;;8.77;3.65;;;20.60;86.90;;;;;;5032757;28;20032;-66
2022/08/25 00:57:42;;;;;;;4.40;3.33;;;20.60;87.00;;;;;;5048302;28;20033;-66
2022/08/25 01:00:22;;;;;;;4.78;3.08;;;20.60;87.10;;;;;;5050915;28;20380;-66
2022/08/25 01:02:48;;;;;;;6.13;3.72;;;20.50;87.10;;;;;;5044823;28;20497;-66
2022/08/25 01:05:14;;;;;;;5.93;3.50;;;20.60;87.10;;;;;;5046956;28;20044;-66
2022/08/25 01:07:42;;;;;;;4.53;3.53;;;20.60;87.10;;;;;;5046855;28;20060;-66
2022/08/25 01:10:08;;;;;;;6.32;3.90;;;20.50;87.10;;;;;;5032185;28;20021;-66
2022/08/25 01:12:36;;;;;;;9.63;4.20;;;20.50;87.10;;;;;;5048200;28;20028;-67
2022/08/25 01:15:03;;;;;;;8.75;3.92;;;20.50;87.20;;;;;;5048156;28;20025;-66
2022/08/25 01:17:45;;;;;;;6.22;3.85;;;20.50;87.20;;;;;;5033359;28;20068;-66
2022/08/25 01:20:12;;;;;;;8.63;4.00;;;20.50;88.00;;;;;;5032285;28;20028;-66
2022/08/25 01:22:38;;;;;;;6.65;4.18;;;20.50;87.30;;;;;;5046259;28;20021;-66
2022/08/25 01:25:14;;;;;;;7.57;4.07;;;20.50;87.30;;;;;;5046247;28;20029;-66
2022/08/25 01:27:40;;;;;;;12.05;5.00;;;20.50;87.30;;;;;;5043010;28;20108;-66
2022/08/25 01:30:06;;;;;;;9.10;4.28;;;20.50;87.40;;;;;;5048884;28;20517;-67
2022/08/25 01:32:33;;;;;;;8.77;4.40;;;20.50;87.40;;;;;;5046563;28;20024;-66
2022/08/25 01:34:59;;;;;;;8.70;4.70;;;20.50;87.40;;;;;;5031395;28;20110;-70
2022/08/25 01:37:25;;;;;;;10.27;4.35;;;20.50;87.50;;;;;;5047030;28;20065;-69
2022/08/25 01:39:50;;;;;;;5.85;3.72;;;20.50;87.60;;;;;;5031867;28;20029;-69
2022/08/25 01:42:26;;;;;;;5.55;4.03;;;20.50;87.60;;;;;;5050706;28;20421;-69
2022/08/25 01:44:53;;;;;;;5.25;3.80;;;20.50;87.60;;;;;;5043142;28;20095;-69
2022/08/25 01:47:19;;;;;;;6.03;3.72;;;20.40;87.60;;;;;;5048060;28;20432;-69
2022/08/25 01:49:45;;;;;;;7.90;4.10;;;20.50;87.70;;;;;;5047018;28;20406;-69
2022/08/25 01:52:27;;;;;;;9.63;4.38;;;20.50;87.70;;;;;;5050551;28;20095;-69
2022/08/25 01:54:52;;;;;;;5.68;3.75;;;20.40;87.70;;;;;;5042542;28;20031;-70
2022/08/25 01:57:18;;;;;;;5.85;4.30;;;20.40;87.70;;;;;;5048100;28;20124;-69
2022/08/25 01:59:44;;;;;;;5.93;4.20;;;20.40;87.70;;;;;;5032354;28;20055;-69
2022/08/25 02:02:10;;;;;;;12.88;4.88;;;20.50;87.80;;;;;;5048523;28;20029;-69
2022/08/25 02:04:36;;;;;;;10.52;4.53;;;20.40;87.80;;;;;;5047638;28;20025;-69
2022/08/25 02:07:05;;;;;;;6.47;4.43;;;20.40;87.80;;;;;;5030152;28;20024;-69
2022/08/25 02:09:31;;;;;;;11.95;4.95;;;20.40;87.90;;;;;;5047153;28;20025;-69
2022/08/25 02:11:56;;;;;;;7.93;4.45;;;20.40;87.90;;;;;;5031212;28;20037;-69
2022/08/25 02:14:22;;;;;;;9.00;5.22;;;20.40;87.90;;;;;;5048375;28;20039;-69
2022/08/25 02:16:50;;;;;;;10.80;5.40;;;20.40;87.90;;;;;;5047870;28;20136;-69
2022/08/25 02:19:17;;;;;;;9.35;5.30;;;20.40;87.90;;;;;;5029550;28;20055;-69
2022/08/25 02:21:43;;;;;;;12.70;4.80;;;20.40;87.90;;;;;;5047125;28;20014;-69
2022/08/25 02:24:10;;;;;;;8.93;5.85;;;20.40;88.00;;;;;;5048822;28;20021;-69
2022/08/25 02:26:36;;;;;;;7.63;4.43;;;20.40;88.10;;;;;;5046769;28;20033;-69
2022/08/25 02:29:02;;;;;;;8.70;5.18;;;20.40;88.10;;;;;;5025975;28;20025;-69
2022/08/25 02:31:28;;;;;;;7.50;4.60;;;20.40;88.10;;;;;;5048735;28;20024;-69
2022/08/25 02:33:54;;;;;;;12.55;5.07;;;20.40;88.10;;;;;;5049763;28;20456;-69
2022/08/25 02:36:20;;;;;;;12.63;5.97;;;20.40;88.10;;;;;;5048049;28;20032;-69
2022/08/25 02:38:46;;;;;;;10.45;4.97;;;20.30;88.00;;;;;;5047444;28;20025;-69
2022/08/25 02:41:21;;;;;;;7.88;4.80;;;20.40;88.10;;;;;;5047352;28;20489;-69
2022/08/25 02:43:47;;;;;;;8.93;4.93;;;20.40;88.20;;;;;;5030567;28;20037;-69
2022/08/25 02:46:14;;;;;;;10.90;5.35;;;20.30;88.20;;;;;;5048156;28;20032;-69
2022/08/25 02:48:41;;;;;;;10.02;5.68;;;20.30;88.20;;;;;;5048750;28;20017;-69
2022/08/25 02:51:08;;;;;;;11.38;5.60;;;20.30;88.20;;;;;;5049140;28;20021;-70
2022/08/25 02:53:38;;;;;;;8.88;4.85;;;20.30;88.20;;;;;;5048163;28;20777;-69
2022/08/25 02:56:06;;;;;;;;;;;20.30;88.20;;;;;;5029855;28;20134;-69
2022/08/25 02:58:31;;;;;;;10.02;5.10;;;20.30;88.30;;;;;;5049390;28;20277;-69
2022/08/25 03:00:57;;;;;;;9.30;5.00;;;20.30;88.30;;;;;;5049076;28;20025;-69
2022/08/25 03:03:23;;;;;;;11.77;5.65;;;20.30;88.30;;;;;;5031265;28;20033;-69
2022/08/25 03:05:48;;;;;;;11.93;5.57;;;20.30;88.30;;;;;;5047702;28;20029;-70
2022/08/25 03:08:15;;;;;;;9.68;5.13;;;20.30;88.40;;;;;;5049605;28;20025;-69
2022/08/25 03:10:40;;;;;;;8.75;6.32;;;20.30;88.30;;;;;;5048666;28;20022;-69
2022/08/25 03:13:06;;;;;;;12.23;6.13;;;20.30;88.40;;;;;;5049607;28;20513;-69
2022/08/25 03:15:32;;;;;;;9.77;6.25;;;20.30;88.50;;;;;;5047809;28;20025;-69
2022/08/25 03:17:58;;;;;;;15.02;5.78;;;20.30;88.40;;;;;;5038257;28;20037;-69
2022/08/25 03:20:25;;;;;;;10.73;6.60;;;20.30;88.50;;;;;;5036989;28;20092;-69
2022/08/25 03:22:51;;;;;;;8.68;5.78;;;20.30;88.50;;;;;;5040717;28;20052;-69
2022/08/25 03:28:02;;;;;;;14.90;6.60;;;20.20;88.50;;;;;;5045088;28;20044;-69
2022/08/25 03:30:28;;;;;;;11.02;6.45;;;20.20;88.50;;;;;;5038222;28;20056;-69
2022/08/25 03:32:55;;;;;;;9.35;5.75;;;20.30;88.60;;;;;;5023375;28;20074;-69
2022/08/25 03:35:21;;;;;;;9.98;6.25;;;20.20;88.60;;;;;;5041355;28;20021;-69
2022/08/25 03:37:47;;;;;;;17.92;5.88;;;20.20;88.60;;;;;;5038035;28;20033;-69
2022/08/25 03:40:15;;;;;;;9.27;5.70;;;20.20;88.60;;;;;;5025757;28;20071;-69
2022/08/25 03:42:42;;;;;;;13.55;7.10;;;20.20;88.60;;;;;;5044673;28;20071;-69
2022/08/25 03:45:10;;;;;;;9.02;5.45;;;20.30;88.70;;;;;;5025566;28;20025;-69
2022/08/25 03:47:37;;;;;;;8.75;5.60;;;20.20;88.70;;;;;;5037813;28;20033;-69
2022/08/25 03:50:04;;;;;;;11.45;6.68;;;20.20;88.70;;;;;;5042387;28;20152;-69
2022/08/25 03:52:30;;;;;;;10.48;6.82;;;20.20;88.80;;;;;;5045084;28;20021;-69
2022/08/25 03:54:57;;;;;;;9.95;6.22;;;20.20;88.80;;;;;;5041805;28;20040;-69
2022/08/25 03:57:22;;;;;;;8.90;5.88;;;20.20;88.70;;;;;;5047253;28;20032;-69
2022/08/25 03:59:48;;;;;;;10.82;6.15;;;20.20;88.70;;;;;;5042701;28;20138;-70
2022/08/25 04:02:13;;;;;;;11.70;7.05;;;20.20;88.80;;;;;;5040435;28;20029;-69
2022/08/25 04:04:39;;;;;;;11.23;6.28;;;20.20;88.80;;;;;;5042945;28;20470;-69
2022/08/25 04:07:05;;;;;;;9.38;6.45;;;20.20;88.80;;;;;;5044585;28;20024;-69
2022/08/25 04:09:31;;;;;;;11.32;7.05;;;20.20;88.80;;;;;;5045311;28;20025;-69
2022/08/25 04:11:57;;;;;;;10.00;6.30;;;20.20;88.90;;;;;;5043739;28;20407;-69
2022/08/25 04:14:23;;;;;;;11.30;6.38;;;20.20;88.90;;;;;;5045487;28;20486;-69
2022/08/25 04:16:49;;;;;;;10.85;6.35;;;20.20;88.90;;;;;;5042867;28;20394;-69
2022/08/25 04:19:15;;;;;;;14.27;6.55;;;20.20;88.90;;;;;;5040728;28;20033;-69
2022/08/25 04:21:41;;;;;;;12.95;6.68;;;20.20;89.00;;;;;;5042795;28;20021;-69
2022/08/25 04:24:09;;;;;;;13.98;7.40;;;20.20;89.00;;;;;;5046589;28;20017;-69
2022/08/25 04:26:39;;;;;;;15.45;6.82;;;20.20;89.00;;;;;;5048181;28;20494;-69
2022/08/25 04:29:06;;;;;;;;;;;20.20;89.00;;;;;;5044061;28;20108;-69
2022/08/25 04:31:32;;;;;;;12.07;7.15;;;20.20;89.00;;;;;;5045316;28;19911;-69
2022/08/25 04:34:04;;;;;;;10.38;6.28;;;20.20;89.00;;;;;;5042968;28;20033;-69
2022/08/25 04:36:30;;;;;;;9.20;6.30;;;20.20;89.10;;;;;;5041214;28;20400;-69
2022/08/25 04:38:56;;;;;;;13.68;7.40;;;20.20;89.10;;;;;;5043407;28;20079;-69
2022/08/25 04:41:23;;;;;;;11.95;6.72;;;20.10;89.00;;;;;;5044397;28;20021;-70
2022/08/25 04:43:50;;;;;;;12.45;7.30;;;20.10;89.10;;;;;;5049896;28;20017;-69
2022/08/25 04:46:17;;;;;;;13.13;7.20;;;20.10;89.10;;;;;;5038697;28;20079;-69
2022/08/25 04:48:43;;;;;;;15.13;8.35;;;20.10;89.10;;;;;;5044463;28;20028;-69
2022/08/25 04:51:12;;;;;;;12.63;7.38;;;20.10;89.10;;;;;;5041588;28;20422;-69
2022/08/25 04:53:39;;;;;;;16.85;7.65;;;20.10;90.00;;;;;;5042725;28;20025;-69
2022/08/25 04:56:10;;;;;;;11.73;7.20;;;20.10;89.20;;;;;;5043286;28;20029;-69
2022/08/25 04:58:36;;;;;;;11.63;7.18;;;20.10;89.20;;;;;;5043926;28;20024;-69
2022/08/25 05:01:17;;;;;;;11.35;6.13;;;20.10;89.30;;;;;;5045012;28;20112;-69
2022/08/25 05:03:44;;;;;;;11.32;6.78;;;20.10;89.30;;;;;;5045405;28;20021;-69
2022/08/25 05:06:10;;;;;;;17.40;6.88;;;20.10;89.30;;;;;;5041631;28;20014;-69
2022/08/25 05:08:36;;;;;;;14.57;6.93;;;20.10;89.30;;;;;;5042443;28;20064;-69
2022/08/25 05:11:15;;;;;;;15.60;7.80;;;20.10;89.30;;;;;;5044709;28;20147;-69
2022/08/25 05:13:41;;;;;;;14.47;7.57;;;20.10;89.30;;;;;;5044619;28;20025;-69
2022/08/25 05:16:14;;;;;;;12.38;7.25;;;20.10;89.30;;;;;;5044834;28;20098;-69
2022/08/25 05:18:40;;;;;;;12.93;7.82;;;20.10;89.30;;;;;;5044250;28;20025;-68
2022/08/25 05:21:09;;;;;;;15.73;8.25;;;20.10;89.30;;;;;;5044564;28;20025;-70
2022/08/25 05:23:36;;;;;;;16.70;9.23;;;20.10;89.40;;;;;;5045395;28;20102;-69
2022/08/25 05:26:05;;;;;;;12.35;8.15;;;20.10;89.30;;;;;;5042506;28;20029;-69
2022/08/25 05:28:31;;;;;;;21.73;8.38;;;20.10;89.40;;;;;;5047248;28;20025;-69
2022/08/25 05:31:01;;;;;;;15.68;9.45;;;20.10;89.30;;;;;;5044787;28;20078;-70
2022/08/25 05:33:27;;;;;;;17.48;10.23;;;20.10;89.40;;;;;;5045649;28;20021;-69
2022/08/25 05:35:54;;;;;;;13.10;8.13;;;20.20;89.30;;;;;;5023914;28;20035;-70
2022/08/25 05:38:20;;;;;;;14.88;8.20;;;20.20;89.20;;;;;;5045353;28;20028;-69
2022/08/25 05:40:45;;;;;;;13.18;8.30;;;20.20;89.30;;;;;;5045293;28;20025;-70
2022/08/25 05:46:33;;;;;;;18.50;8.80;;;20.30;89.40;;;;;;5077343;22;20179;-65
2022/08/25 05:48:59;;;;;;;17.27;9.05;;;20.30;89.40;;;;;;5051785;28;20111;-65
2022/08/25 05:51:25;;;;;;;15.63;9.25;;;20.20;89.30;;;;;;5053434;28;20029;-64
2022/08/25 05:53:51;;;;;;;14.77;8.60;;;20.30;89.30;;;;;;5035011;28;20227;-66
2022/08/25 05:56:18;;;;;;;17.08;9.93;;;20.30;89.40;;;;;;5025778;28;20124;-65
2022/08/25 05:58:44;;;;;;;15.75;8.15;;;20.30;89.40;;;;;;5038650;28;20029;-65
2022/08/25 06:04:09;;;;;;;19.40;10.70;;;20.40;89.30;;;;;;5052350;28;20032;-65
2022/08/25 06:06:35;;;;;;;20.10;8.32;;;20.40;89.30;;;;;;5033470;28;20024;-65
2022/08/25 06:09:02;;;;;;;19.13;9.55;;;20.50;89.30;;;;;;5033732;28;20021;-65
2022/08/25 06:11:27;;;;;;;14.38;8.38;;;20.50;89.20;;;;;;5051844;28;20110;-64
2022/08/25 06:13:54;;;;;;;16.63;9.30;;;20.60;89.20;;;;;;5031320;28;20072;-65
2022/08/25 06:16:20;;;;;;;15.13;9.07;;;20.60;89.10;;;;;;5050734;28;20021;-65
2022/08/25 06:18:45;;;;;;;15.40;8.15;;;20.60;89.10;;;;;;5051664;28;20102;-65
2022/08/25 06:21:13;;;;;;;20.95;9.68;;;20.70;89.00;;;;;;5034099;28;20257;-65
2022/08/25 06:23:39;;;;;;;16.38;9.02;;;20.70;89.00;;;;;;5051560;28;20025;-65
2022/08/25 06:26:08;;;;;;;18.75;9.13;;;20.80;88.90;;;;;;5050435;28;20024;-65
2022/08/25 06:28:34;;;;;;;15.52;9.13;;;20.80;88.90;;;;;;5033290;28;20032;-65
2022/08/25 06:31:00;;;;;;;16.67;8.73;;;20.90;89.00;;;;;;5054082;28;20017;-65
2022/08/25 06:33:26;;;;;;;23.02;8.88;;;20.90;88.90;;;;;;5051215;28;20032;-65
2022/08/25 06:35:55;;;;;;;13.38;8.35;;;21.00;89.00;;;;;;5050707;28;20025;-65
2022/08/25 06:38:22;;;;;;;17.95;9.02;;;21.00;89.00;;;;;;5050968;28;20052;-65
2022/08/25 06:40:48;;;;;;;13.07;8.98;;;21.10;89.00;;;;;;5050874;28;20231;-65
2022/08/25 06:43:14;;;;;;;13.45;8.55;;;21.10;89.10;;;;;;5051513;28;20100;-65
2022/08/25 06:45:42;;;;;;;15.45;8.90;;;21.10;89.10;;;;;;5035305;28;20120;-65
2022/08/25 06:48:09;;;;;;;16.17;8.60;;;21.20;89.10;;;;;;5051048;28;20040;-65
2022/08/25 06:50:37;;;;;;;10.82;7.55;;;21.30;89.20;;;;;;5033162;28;20032;-65
2022/08/25 06:53:03;;;;;;;14.13;8.07;;;21.30;89.30;;;;;;5051108;28;20028;-65
2022/08/25 06:55:29;;;;;;;12.90;7.75;;;21.30;89.20;;;;;;5050429;28;20378;-65
2022/08/25 06:57:54;;;;;;;13.85;7.93;;;21.40;89.70;;;;;;5033287;28;20029;-65
2022/08/25 07:00:21;;;;;;;13.95;8.40;;;21.40;89.20;;;;;;5052074;28;20390;-65
2022/08/25 07:02:46;;;;;;;13.35;7.88;;;21.40;89.20;;;;;;5050577;28;20366;-65
2022/08/25 07:05:12;;;;;;;14.68;8.07;;;21.50;89.20;;;;;;5032714;28;20565;-65
2022/08/25 07:07:38;;;;;;;13.98;8.80;;;21.50;89.20;;;;;;5032331;28;20021;-65
2022/08/25 07:10:05;;;;;;;15.55;7.85;;;21.60;89.00;;;;;;5050646;28;20029;-65
2022/08/25 07:12:30;;;;;;;17.58;9.00;;;21.60;88.90;;;;;;5032045;28;20074;-65
2022/08/25 07:15:13;;;;;;;14.73;7.97;;;21.70;89.00;;;;;;5033265;28;20029;-65
2022/08/25 07:17:38;;;;;;;17.90;7.65;;;21.70;88.90;;;;;;5050604;28;20029;-65
2022/08/25 07:20:07;;;;;;;15.13;9.32;;;21.70;88.80;;;;;;5050899;28;20032;-65
2022/08/25 07:22:33;;;;;;;13.02;7.80;;;21.80;88.80;;;;;;5032403;28;20170;-65
2022/08/25 07:24:58;;;;;;;14.00;7.78;;;21.80;88.80;;;;;;5050850;28;20100;-65
2022/08/25 07:27:25;;;;;;;17.85;7.85;;;21.80;88.80;;;;;;5054298;28;20171;-65
2022/08/25 07:29:52;;;;;;;12.20;7.05;;;21.90;88.70;;;;;;5061455;28;20067;-66
2022/08/25 07:32:18;;;;;;;15.05;8.45;;;22.00;88.60;;;;;;5057241;28;20083;-65
2022/08/25 07:37:28;;;;;;;14.73;8.77;;;22.00;88.40;;;;;;5054144;28;20052;-65
2022/08/25 07:39:54;;;;;;;13.63;8.55;;;22.10;88.30;;;;;;5053871;28;20025;-65
2022/08/25 07:42:19;;;;;;;12.98;8.10;;;22.10;88.20;;;;;;5036421;28;20312;-65
2022/08/25 07:44:46;;;;;;;14.32;7.00;;;22.10;88.10;;;;;;5058295;28;20121;-65
2022/08/25 07:47:14;;;;;;;16.17;8.50;;;22.20;87.90;;;;;;5045412;28;20047;-66
2022/08/25 07:49:41;;;;;;;9.77;6.50;;;22.20;87.80;;;;;;5036548;28;20025;-65
2022/08/25 07:52:07;;;;;;;14.88;7.85;;;22.30;87.70;;;;;;5054121;28;20017;-65
2022/08/25 07:54:33;;;;;;;17.40;7.93;;;22.30;87.60;;;;;;5053775;28;20113;-65
2022/08/25 07:56:59;;;;;;;11.55;6.18;;;22.30;87.50;;;;;;5053987;28;20052;-65
2022/08/25 07:59:26;;;;;;;12.02;6.70;;;22.40;87.50;;;;;;5055243;28;20122;-65
2022/08/25 08:01:52;;;;;;;12.88;6.40;;;22.40;87.30;;;;;;5055207;28;20478;-65
2022/08/25 08:04:18;;;;;;;12.38;6.95;;;22.40;87.10;;;;;;5054691;28;20021;-65
2022/08/25 08:06:44;;;;;;;12.82;7.38;;;22.50;87.10;;;;;;5035842;28;20362;-65
2022/08/25 08:09:11;;;;;;;10.60;6.28;;;22.50;87.00;;;;;;5054036;28;20025;-65
2022/08/25 08:11:39;;;;;;;10.52;7.35;;;22.50;86.80;;;;;;5044985;28;20021;-65
2022/08/25 08:14:07;;;;;;;10.38;6.53;;;22.60;86.80;;;;;;5054257;28;20486;-65
2022/08/25 08:16:33;;;;;;;13.40;7.25;;;22.60;86.80;;;;;;5035692;28;20439;-64
2022/08/25 08:18:59;;;;;;;9.88;6.85;;;22.60;86.70;;;;;;5035344;28;20048;-64
2022/08/25 08:21:31;;;;;;;14.75;8.07;;;22.60;86.60;;;;;;5053455;28;20540;-65
2022/08/25 08:23:57;;;;;;;14.50;7.45;;;22.60;86.50;;;;;;5045820;28;20082;-64
2022/08/25 08:26:23;;;;;;;12.35;7.05;;;22.70;86.50;;;;;;5053161;28;20018;-65
2022/08/25 08:28:50;;;;;;;10.55;6.15;;;22.70;86.40;;;;;;5053164;28;20036;-66
2022/08/25 08:31:18;;;;;;;14.00;6.60;;;22.70;86.40;;;;;;5048772;28;20461;-65
2022/08/25 08:33:45;;;;;;;16.00;8.35;;;22.70;86.40;;;;;;5053323;28;20036;-65
2022/08/25 08:36:11;;;;;;;13.55;6.50;;;22.80;86.40;;;;;;5052166;28;20024;-65
2022/08/25 08:38:39;;;;;;;13.93;7.50;;;22.80;86.40;;;;;;5053043;28;20025;-65
2022/08/25 08:44:42;;;;;;;16.63;7.78;;;22.80;86.30;;;;;;5053844;28;20453;-65
2022/08/25 08:47:20;;;;;;;13.13;7.40;;;22.90;86.30;;;;;;5055457;28;20064;-63
2022/08/25 08:50:02;;;;;;;9.93;6.13;;;22.90;86.20;;;;;;5044518;28;20090;-63
2022/08/25 08:52:45;;;;;;;14.93;6.53;;;22.90;86.00;;;;;;5052020;28;20024;-63
2022/08/25 08:55:44;;;;;;;11.88;5.85;;;23.00;86.00;;;;;;5034118;28;20114;-63
2022/08/25 08:58:19;;;;;;;8.40;5.28;;;23.00;85.80;;;;;;5051710;28;20029;-63
2022/08/25 09:00:53;;;;;;;12.98;6.95;;;23.00;85.80;;;;;;5038088;28;20390;-63
2022/08/25 09:03:34;;;;;;;10.85;6.45;;;23.00;85.80;;;;;;5048516;28;20014;-63
2022/08/25 09:06:06;;;;;;;11.02;7.53;;;23.10;85.90;;;;;;5033794;28;20090;-62
2022/08/25 09:08:31;;;;;;;10.93;6.55;;;23.10;85.70;;;;;;5034126;28;20389;-63
2022/08/25 09:11:08;;;;;;;9.63;5.38;;;23.10;85.60;;;;;;5052070;28;20035;-63
2022/08/25 09:13:49;;;;;;;9.93;6.10;;;23.10;85.70;;;;;;5051155;28;20017;-63
2022/08/25 09:19:36;;;;;;;9.43;6.15;;;23.10;85.40;;;;;;5047475;28;20039;-63
2022/08/25 09:22:26;;;;;;;12.93;6.60;;;23.10;85.40;;;;;;5011889;28;20545;-63
2022/08/25 09:25:14;;;;;;;9.80;6.30;;;23.10;85.40;;;;;;5051518;28;20043;-63
2022/08/25 09:28:03;;;;;;;11.10;5.70;;;23.20;85.40;;;;;;5050886;28;20032;-63
2022/08/25 09:30:55;;;;;;;10.63;6.37;;;23.20;85.30;;;;;;5052641;28;20081;-64
2022/08/25 09:33:23;;;;;;;15.48;5.97;;;23.20;85.10;;;;;;5050777;28;20490;-63
2022/08/25 09:35:51;;;;;;;8.80;5.82;;;23.20;85.10;;;;;;5025379;28;20496;-64
2022/08/25 09:38:23;;;;;;;8.95;5.28;;;23.20;85.10;;;;;;5033464;28;20029;-63
2022/08/25 09:41:11;;;;;;;11.85;5.00;;;23.20;85.10;;;;;;5033962;28;20060;-64
2022/08/25 09:43:51;;;;;;;7.70;5.15;;;23.20;85.10;;;;;;5015513;28;20564;-62
2022/08/25 09:49:20;;;;;;;9.63;6.05;;;23.20;85.20;;;;;;5051371;28;19962;-63
2022/08/25 09:51:48;;;;;;;10.75;5.47;;;23.10;85.20;;;;;;5035502;28;20021;-63
2022/08/25 09:54:14;;;;;;;12.57;4.75;;;23.10;85.20;;;;;;5052709;28;20032;-63
2022/08/25 09:56:55;;;;;;;8.60;5.20;;;23.10;85.30;;;;;;5052588;28;20567;-63
2022/08/25 09:59:25;;;;;;;7.95;4.97;;;23.10;85.30;;;;;;5051139;28;20106;-63
2022/08/25 10:01:54;;;;;;;10.03;5.30;;;23.10;85.40;;;;;;5045171;28;20151;-64
2022/08/25 10:04:38;;;;;;;8.65;6.10;;;23.00;85.50;;;;;;5034581;28;20272;-63
2022/08/25 10:07:38;;;;;;;8.18;5.70;;;23.00;85.50;;;;;;5045727;28;20032;-63
2022/08/25 10:10:17;;;;;;;;;;;23.00;85.60;;;;;;5034860;28;20404;-63
2022/08/25 10:12:50;;;;;;;6.32;4.30;;;22.90;85.70;;;;;;5050705;28;19988;-63
2022/08/25 10:15:15;;;;;;;11.00;5.18;;;22.90;85.80;;;;;;5052693;28;20032;-63
2022/08/25 10:17:41;;;;;;;11.57;4.93;;;22.90;85.80;;;;;;5053397;28;20029;-63
2022/08/25 10:20:19;;;;;;;10.35;4.68;;;22.80;86.50;;;;;;5034645;28;20040;-63
2022/08/25 10:23:21;;;;;;;9.98;5.10;;;22.80;85.90;;;;;;5053116;28;20027;-63
2022/08/25 10:25:50;;;;;;;10.43;5.53;;;22.80;86.10;;;;;;5033398;28;20500;-63
2022/08/25 10:28:40;;;;;;;10.07;4.97;;;22.70;86.20;;;;;;5033724;28;20025;-63
2022/08/25 10:31:35;;;;;;;8.93;5.28;;;22.70;86.40;;;;;;5049156;28;20064;-63
2022/08/25 10:34:42;;;;;;;11.80;5.25;;;22.70;86.50;;;;;;5054761;28;20032;-63
2022/08/25 10:37:19;;;;;;;8.32;5.25;;;22.60;86.50;;;;;;5040347;28;20066;-63
2022/08/25 10:43:38;;;;;;;14.90;5.03;;;22.60;86.70;;;;;;5059242;28;20032;-63
2022/08/25 10:46:39;;;;;;;7.18;4.60;;;22.60;86.70;;;;;;5031600;28;20040;-63
2022/08/25 10:56:29;;;;;;;;;;;22.50;86.80;;;;;;4915144;29;20054;-63
2022/08/25 10:59:25;;;;;;;9.68;5.22;;;22.50;87.00;;;;;;4914595;29;19922;-63
2022/08/25 11:02:15;;;;;;;8.95;4.72;;;22.50;87.10;;;;;;4892667;29;20041;-64
2022/08/25 11:04:57;;;;;;;9.48;5.10;;;22.40;87.20;;;;;;4895469;29;20035;-63
2022/08/25 11:07:44;;;;;;;7.05;4.97;;;22.40;87.30;;;;;;4895155;29;20042;-63
2022/08/25 11:10:24;;;;;;;7.78;5.32;;;22.40;87.30;;;;;;4891722;29;20041;-63
2022/08/25 11:13:05;;;;;;;10.73;5.03;;;22.40;87.40;;;;;;4895320;29;20041;-63
2022/08/25 11:16:10;;;;;;;9.32;5.57;;;22.30;87.40;;;;;;4893186;29;20489;-63
2022/08/25 11:19:19;;;;;;;13.05;5.38;;;22.40;87.50;;;;;;4894695;29;20055;-63
2022/08/25 11:22:15;;;;;;;11.30;4.82;;;22.30;87.50;;;;;;4893887;29;20081;-63
2022/08/25 11:25:04;;;;;;;10.13;4.70;;;22.30;87.70;;;;;;4894680;29;20542;-63
2022/08/25 11:27:52;;;;;;;8.50;4.68;;;22.30;87.80;;;;;;4913539;29;20076;-63
2022/08/25 11:30:19;;;;;;;6.93;4.60;;;22.30;87.90;;;;;;4990998;28;20187;-63
2022/08/25 11:32:51;;;;;;;7.85;5.38;;;22.30;87.90;;;;;;4971576;28;20181;-63
2022/08/25 11:35:51;;;;;;;6.40;4.68;;;22.30;88.00;;;;;;4940324;28;20030;-63
2022/08/25 11:38:43;;;;;;;;;;;22.30;88.10;;;;;;4994836;28;20052;-63
2022/08/25 11:41:47;;;;;;;8.70;5.10;;;22.30;88.10;;;;;;4969984;28;20104;-63
2022/08/25 11:54:44;;;;;;;9.77;5.38;;;22.20;88.00;;;;;;4970050;28;20038;-63
2022/08/25 11:57:47;;;;;;;7.45;4.88;;;22.20;88.00;;;;;;4970510;28;20489;-63
2022/08/25 12:11:04;;;;;;;6.25;4.40;;;22.20;88.20;;;;;;4991030;28;20518;-63
2022/08/25 12:14:07;;;;;;;7.95;4.35;;;22.20;88.20;;;;;;4993784;28;20038;-64
2022/08/25 12:20:01;;;;;;;13.13;4.47;;;22.20;88.10;;;;;;5075426;28;20035;-64
2022/08/25 12:22:33;;;;;;;8.80;4.32;;;22.20;88.10;;;;;;5072710;28;20032;-64
2022/08/25 12:25:18;;;;;;;5.07;3.90;;;22.20;88.10;;;;;;5037424;28;20056;-63
2022/08/25 12:27:44;;;;;;;4.97;3.85;;;22.20;88.20;;;;;;5048952;28;20063;-63
2022/08/25 12:30:37;;;;;;;4.63;3.70;;;22.20;88.20;;;;;;5054031;28;20053;-63
2022/08/25 12:33:21;;;;;;;5.65;4.15;;;22.20;88.30;;;;;;5037121;28;20080;-63
2022/08/25 12:35:59;;;;;;;6.28;3.42;;;22.20;88.30;;;;;;5054585;28;20024;-63
2022/08/25 12:39:18;;;;;;;10.68;4.60;;;22.20;88.40;;;;;;5055128;28;20044;-63
2022/08/25 12:45:19;;;;;;;5.35;3.58;;;22.20;88.30;;;;;;4973928;28;20082;-63
2022/08/25 12:47:51;;;;;;;8.10;4.07;;;22.20;88.40;;;;;;4982553;28;20026;-63
2022/08/25 12:50:41;;;;;;;8.50;3.78;;;22.20;88.40;;;;;;4960686;28;20031;-63
2022/08/25 12:53:27;;;;;;;5.75;3.60;;;22.20;88.40;;;;;;4959634;28;20037;-63
2022/08/25 12:56:15;;;;;;;6.88;4.07;;;22.20;88.30;;;;;;4992183;28;20049;-64
2022/08/25 12:58:50;;;;;;;7.25;3.65;;;22.20;88.30;;;;;;4982392;28;20074;-63
2022/08/25 13:01:40;;;;;;;5.40;3.97;;;22.20;88.40;;;;;;4978986;28;20503;-63
2022/08/25 13:04:42;;;;;;;5.70;4.03;;;22.20;88.50;;;;;;4988705;28;20042;-63
2022/08/25 13:07:28;;;;;;;5.30;3.28;;;22.20;88.30;;;;;;4979127;28;20022;-63
2022/08/25 13:10:20;;;;;;;7.50;3.72;;;22.20;88.30;;;;;;4978796;28;20497;-63
2022/08/25 13:13:03;;;;;;;5.35;3.47;;;22.20;88.30;;;;;;4975017;28;20030;-63
2022/08/25 13:15:36;;;;;;;6.25;4.47;;;22.20;88.40;;;;;;4961146;28;20117;-63
2022/08/25 13:18:20;;;;;;;8.05;4.03;;;22.20;88.60;;;;;;5043515;28;20040;-64
2022/08/25 13:20:49;;;;;;;6.78;3.20;;;22.20;88.70;;;;;;5051886;28;20032;-63
2022/08/25 13:23:21;;;;;;;7.03;3.80;;;22.20;88.70;;;;;;5050612;28;20013;-63
2022/08/25 13:25:52;;;;;;;5.25;3.83;;;22.20;88.80;;;;;;5050212;28;20013;-63
2022/08/25 13:28:25;;;;;;;6.00;3.03;;;22.20;88.80;;;;;;5052012;28;20489;-64
2022/08/25 13:31:01;;;;;;;4.70;3.20;;;22.20;88.80;;;;;;5051179;28;20072;-63
2022/08/25 13:33:27;;;;;;;8.23;3.53;;;22.20;88.90;;;;;;5026085;28;20013;-63
2022/08/25 13:38:41;;;;;;;5.30;3.30;;;22.10;88.90;;;;;;5045288;28;20039;-63
2022/08/25 13:41:08;;;;;;;4.78;3.50;;;22.10;89.00;;;;;;5050984;28;20021;-64
2022/08/25 13:43:35;;;;;;;4.78;3.20;;;22.20;89.00;;;;;;5051313;28;20104;-63
2022/08/25 13:46:01;;;;;;;4.57;3.80;;;22.20;89.10;;;;;;5050071;28;20175;-64
2022/08/25 13:48:37;;;;;;;3.40;2.90;;;22.20;89.10;;;;;;5056050;28;20505;-63
2022/08/25 13:51:25;;;;;;;5.28;3.53;;;22.20;89.10;;;;;;5051187;28;20100;-64
2022/08/25 13:54:03;;;;;;;4.15;3.03;;;22.20;89.10;;;;;;5051234;28;20029;-64
2022/08/25 13:56:32;;;;;;;5.72;3.58;;;22.20;89.10;;;;;;5034427;28;20014;-63
2022/08/25 13:59:01;;;;;;;7.47;3.33;;;22.20;89.10;;;;;;5050589;28;20075;-64
2022/08/25 14:01:30;;;;;;;5.20;3.03;;;22.20;89.10;;;;;;5049781;28;20299;-63
2022/08/25 14:04:17;;;;;;;5.13;2.78;;;22.10;89.10;;;;;;5053936;28;20075;-64
2022/08/25 14:06:43;;;;;;;6.90;2.88;;;22.20;89.10;;;;;;5043683;28;20029;-63
2022/08/25 14:09:17;;;;;;;5.63;2.92;;;22.10;89.10;;;;;;5049930;28;20025;-63